sensor_id;sensor_type;location;lat;lon;timestamp;P1;durP1;ratioP1;P2;durP2;ratioP2
52668;SDS011;59898;52.786;6.892;2023-07-29T00:00:58;20.98;;;14.00;;
52668;SDS011;59898;52.786;6.892;2023-07-29T00:04:20;21.90;;;13.63;;
52668;SDS011;59898;52.786;6.892;2023-07-29T00:07:40;17.73;;;12.85;;
52668;SDS011;59898;52.786;6.892;2023-07-29T00:11:01;17.20;;;13.05;;
52668;SDS011;59898;52.786;6.892;2023-07-29T00:14:21;16.20;;;12.90;;
52668;SDS011;59898;52.786;6.892;2023-07-29T00:17:42;19.20;;;12.40;;
52668;SDS011;59898;52.786;6.892;2023-07-29T00:21:02;16.33;;;13.23;;
52668;SDS011;59898;52.786;6.892;2023-07-29T00:24:23;15.98;;;13.05;;
52668;SDS011;59898;52.786;6.892;2023-07-29T00:27:44;15.50;;;12.27;;
52668;SDS011;59898;52.786;6.892;2023-07-29T00:31:04;20.40;;;12.65;;
52668;SDS011;59898;52.786;6.892;2023-07-29T00:34:25;14.60;;;12.18;;
52668;SDS011;59898;52.786;6.892;2023-07-29T00:37:45;15.57;;;12.95;;
52668;SDS011;59898;52.786;6.892;2023-07-29T00:41:06;14.73;;;11.77;;
52668;SDS011;59898;52.786;6.892;2023-07-29T00:44:27;16.70;;;12.98;;
52668;SDS011;59898;52.786;6.892;2023-07-29T00:47:48;18.02;;;12.75;;
52668;SDS011;59898;52.786;6.892;2023-07-29T00:51:08;18.13;;;11.57;;
52668;SDS011;59898;52.786;6.892;2023-07-29T00:54:29;18.35;;;12.90;;
52668;SDS011;59898;52.786;6.892;2023-07-29T00:57:50;13.55;;;11.43;;
52668;SDS011;59898;52.786;6.892;2023-07-29T01:01:14;17.30;;;12.07;;
52668;SDS011;59898;52.786;6.892;2023-07-29T01:04:34;16.30;;;12.57;;
52668;SDS011;59898;52.786;6.892;2023-07-29T01:08:06;17.85;;;12.27;;
52668;SDS011;59898;52.786;6.892;2023-07-29T01:11:44;16.48;;;12.13;;
52668;SDS011;59898;52.786;6.892;2023-07-29T01:18:58;15.73;;;11.25;;
52668;SDS011;59898;52.786;6.892;2023-07-29T01:22:27;12.27;;;10.48;;
52668;SDS011;59898;52.786;6.892;2023-07-29T01:25:48;14.27;;;12.70;;
52668;SDS011;59898;52.786;6.892;2023-07-29T01:29:08;14.77;;;11.35;;
52668;SDS011;59898;52.786;6.892;2023-07-29T01:32:32;13.60;;;11.32;;
52668;SDS011;59898;52.786;6.892;2023-07-29T01:36:03;12.55;;;10.57;;
52668;SDS011;59898;52.786;6.892;2023-07-29T01:39:29;13.05;;;10.90;;
52668;SDS011;59898;52.786;6.892;2023-07-29T01:42:52;12.75;;;10.85;;
52668;SDS011;59898;52.786;6.892;2023-07-29T01:46:14;12.73;;;11.15;;
52668;SDS011;59898;52.786;6.892;2023-07-29T01:49:35;16.20;;;10.57;;
52668;SDS011;59898;52.786;6.892;2023-07-29T01:52:55;11.50;;;10.25;;
52668;SDS011;59898;52.786;6.892;2023-07-29T01:56:16;17.75;;;11.98;;
52668;SDS011;59898;52.786;6.892;2023-07-29T01:59:36;11.82;;;10.27;;
52668;SDS011;59898;52.786;6.892;2023-07-29T02:02:57;12.00;;;10.65;;
52668;SDS011;59898;52.786;6.892;2023-07-29T02:06:17;12.38;;;10.00;;
52668;SDS011;59898;52.786;6.892;2023-07-29T02:09:38;15.75;;;10.23;;
52668;SDS011;59898;52.786;6.892;2023-07-29T02:12:59;13.63;;;11.05;;
52668;SDS011;59898;52.786;6.892;2023-07-29T02:16:19;13.43;;;10.63;;
52668;SDS011;59898;52.786;6.892;2023-07-29T02:19:40;11.63;;;10.43;;
52668;SDS011;59898;52.786;6.892;2023-07-29T02:23:01;12.95;;;10.00;;
52668;SDS011;59898;52.786;6.892;2023-07-29T02:26:22;10.80;;;9.60;;
52668;SDS011;59898;52.786;6.892;2023-07-29T02:29:43;11.35;;;9.70;;
52668;SDS011;59898;52.786;6.892;2023-07-29T02:33:04;10.60;;;8.80;;
52668;SDS011;59898;52.786;6.892;2023-07-29T02:36:24;10.07;;;8.77;;
52668;SDS011;59898;52.786;6.892;2023-07-29T02:39:45;12.13;;;9.45;;
52668;SDS011;59898;52.786;6.892;2023-07-29T02:43:06;11.90;;;10.13;;
52668;SDS011;59898;52.786;6.892;2023-07-29T02:46:26;13.70;;;9.05;;
52668;SDS011;59898;52.786;6.892;2023-07-29T02:49:47;11.40;;;8.98;;
52668;SDS011;59898;52.786;6.892;2023-07-29T02:53:08;10.32;;;8.55;;
52668;SDS011;59898;52.786;6.892;2023-07-29T02:56:28;13.43;;;8.27;;
52668;SDS011;59898;52.786;6.892;2023-07-29T02:59:50;11.75;;;8.85;;
52668;SDS011;59898;52.786;6.892;2023-07-29T03:03:11;9.38;;;8.18;;
52668;SDS011;59898;52.786;6.892;2023-07-29T03:06:31;9.00;;;7.07;;
52668;SDS011;59898;52.786;6.892;2023-07-29T03:09:52;8.48;;;7.57;;
52668;SDS011;59898;52.786;6.892;2023-07-29T03:13:12;8.65;;;6.82;;
52668;SDS011;59898;52.786;6.892;2023-07-29T03:16:33;13.18;;;8.02;;
52668;SDS011;59898;52.786;6.892;2023-07-29T03:19:53;9.10;;;6.88;;
52668;SDS011;59898;52.786;6.892;2023-07-29T03:23:14;11.43;;;6.25;;
52668;SDS011;59898;52.786;6.892;2023-07-29T03:26:35;7.35;;;5.55;;
52668;SDS011;59898;52.786;6.892;2023-07-29T03:29:55;10.55;;;6.45;;
52668;SDS011;59898;52.786;6.892;2023-07-29T03:33:16;7.88;;;5.75;;
52668;SDS011;59898;52.786;6.892;2023-07-29T03:36:36;7.32;;;5.47;;
52668;SDS011;59898;52.786;6.892;2023-07-29T03:39:57;7.43;;;5.72;;
52668;SDS011;59898;52.786;6.892;2023-07-29T03:43:17;6.40;;;5.10;;
52668;SDS011;59898;52.786;6.892;2023-07-29T03:46:38;8.05;;;5.97;;
52668;SDS011;59898;52.786;6.892;2023-07-29T03:49:59;6.43;;;5.22;;
52668;SDS011;59898;52.786;6.892;2023-07-29T03:53:19;7.75;;;5.72;;
52668;SDS011;59898;52.786;6.892;2023-07-29T03:56:40;7.32;;;5.22;;
52668;SDS011;59898;52.786;6.892;2023-07-29T04:00:01;9.30;;;5.75;;
52668;SDS011;59898;52.786;6.892;2023-07-29T04:03:21;8.63;;;5.63;;
52668;SDS011;59898;52.786;6.892;2023-07-29T04:06:42;7.18;;;5.93;;
52668;SDS011;59898;52.786;6.892;2023-07-29T04:10:03;8.60;;;5.28;;
52668;SDS011;59898;52.786;6.892;2023-07-29T04:13:24;7.32;;;4.72;;
52668;SDS011;59898;52.786;6.892;2023-07-29T04:16:45;8.85;;;5.15;;
52668;SDS011;59898;52.786;6.892;2023-07-29T04:20:05;6.53;;;4.72;;
52668;SDS011;59898;52.786;6.892;2023-07-29T04:23:27;6.45;;;4.63;;
52668;SDS011;59898;52.786;6.892;2023-07-29T04:26:48;6.93;;;4.90;;
52668;SDS011;59898;52.786;6.892;2023-07-29T04:30:09;9.77;;;4.47;;
52668;SDS011;59898;52.786;6.892;2023-07-29T04:33:30;7.38;;;4.80;;
52668;SDS011;59898;52.786;6.892;2023-07-29T04:36:51;7.05;;;4.78;;
52668;SDS011;59898;52.786;6.892;2023-07-29T04:40:11;7.68;;;4.43;;
52668;SDS011;59898;52.786;6.892;2023-07-29T04:43:32;8.15;;;4.25;;
52668;SDS011;59898;52.786;6.892;2023-07-29T04:46:52;6.07;;;4.18;;
52668;SDS011;59898;52.786;6.892;2023-07-29T04:50:13;5.05;;;3.72;;
52668;SDS011;59898;52.786;6.892;2023-07-29T04:53:34;4.47;;;3.78;;
52668;SDS011;59898;52.786;6.892;2023-07-29T04:56:56;7.87;;;4.80;;
52668;SDS011;59898;52.786;6.892;2023-07-29T05:00:17;4.78;;;3.65;;
52668;SDS011;59898;52.786;6.892;2023-07-29T05:03:37;6.18;;;3.40;;
52668;SDS011;59898;52.786;6.892;2023-07-29T05:06:59;7.70;;;4.23;;
52668;SDS011;59898;52.786;6.892;2023-07-29T05:10:20;6.43;;;3.50;;
52668;SDS011;59898;52.786;6.892;2023-07-29T05:13:41;4.47;;;3.03;;
52668;SDS011;59898;52.786;6.892;2023-07-29T05:17:04;4.55;;;2.97;;
52668;SDS011;59898;52.786;6.892;2023-07-29T05:20:24;6.10;;;2.80;;
52668;SDS011;59898;52.786;6.892;2023-07-29T05:23:45;5.63;;;3.75;;
52668;SDS011;59898;52.786;6.892;2023-07-29T05:27:07;10.00;;;4.00;;
52668;SDS011;59898;52.786;6.892;2023-07-29T05:30:29;4.93;;;3.37;;
52668;SDS011;59898;52.786;6.892;2023-07-29T05:33:53;6.47;;;3.50;;
52668;SDS011;59898;52.786;6.892;2023-07-29T05:37:14;6.05;;;3.50;;
52668;SDS011;59898;52.786;6.892;2023-07-29T05:40:34;5.25;;;3.65;;
52668;SDS011;59898;52.786;6.892;2023-07-29T05:43:55;6.80;;;3.28;;
52668;SDS011;59898;52.786;6.892;2023-07-29T05:47:16;4.82;;;3.28;;
52668;SDS011;59898;52.786;6.892;2023-07-29T05:50:36;5.45;;;3.42;;
52668;SDS011;59898;52.786;6.892;2023-07-29T05:53:57;6.38;;;4.50;;
52668;SDS011;59898;52.786;6.892;2023-07-29T05:57:17;10.05;;;5.45;;
52668;SDS011;59898;52.786;6.892;2023-07-29T06:00:38;6.45;;;4.60;;
52668;SDS011;59898;52.786;6.892;2023-07-29T06:03:58;8.82;;;5.00;;
52668;SDS011;59898;52.786;6.892;2023-07-29T06:07:19;8.57;;;5.53;;
52668;SDS011;59898;52.786;6.892;2023-07-29T06:10:39;6.22;;;5.13;;
52668;SDS011;59898;52.786;6.892;2023-07-29T06:14:00;9.88;;;6.25;;
52668;SDS011;59898;52.786;6.892;2023-07-29T06:17:20;9.18;;;5.43;;
52668;SDS011;59898;52.786;6.892;2023-07-29T06:20:41;10.65;;;6.05;;
52668;SDS011;59898;52.786;6.892;2023-07-29T06:24:02;8.68;;;6.40;;
52668;SDS011;59898;52.786;6.892;2023-07-29T06:27:23;10.95;;;5.70;;
52668;SDS011;59898;52.786;6.892;2023-07-29T06:30:45;9.90;;;6.55;;
52668;SDS011;59898;52.786;6.892;2023-07-29T06:34:06;20.90;;;7.32;;
52668;SDS011;59898;52.786;6.892;2023-07-29T06:37:26;8.40;;;5.78;;
52668;SDS011;59898;52.786;6.892;2023-07-29T06:40:47;9.50;;;5.93;;
52668;SDS011;59898;52.786;6.892;2023-07-29T06:44:08;9.93;;;5.20;;
52668;SDS011;59898;52.786;6.892;2023-07-29T06:47:29;7.25;;;6.00;;
52668;SDS011;59898;52.786;6.892;2023-07-29T06:50:49;9.32;;;5.93;;
52668;SDS011;59898;52.786;6.892;2023-07-29T06:54:10;9.20;;;6.13;;
52668;SDS011;59898;52.786;6.892;2023-07-29T06:57:31;7.45;;;5.63;;
52668;SDS011;59898;52.786;6.892;2023-07-29T07:00:52;13.60;;;6.72;;
52668;SDS011;59898;52.786;6.892;2023-07-29T07:04:12;11.75;;;7.10;;
52668;SDS011;59898;52.786;6.892;2023-07-29T07:07:33;8.32;;;5.95;;
52668;SDS011;59898;52.786;6.892;2023-07-29T07:10:54;10.95;;;6.20;;
52668;SDS011;59898;52.786;6.892;2023-07-29T07:14:14;13.27;;;6.45;;
52668;SDS011;59898;52.786;6.892;2023-07-29T07:17:35;13.23;;;7.10;;
52668;SDS011;59898;52.786;6.892;2023-07-29T07:20:55;8.93;;;7.15;;
52668;SDS011;59898;52.786;6.892;2023-07-29T07:24:16;12.57;;;7.32;;
52668;SDS011;59898;52.786;6.892;2023-07-29T07:27:37;11.18;;;6.85;;
52668;SDS011;59898;52.786;6.892;2023-07-29T07:30:57;12.38;;;6.80;;
52668;SDS011;59898;52.786;6.892;2023-07-29T07:34:22;12.07;;;8.13;;
52668;SDS011;59898;52.786;6.892;2023-07-29T07:37:43;9.40;;;6.93;;
52668;SDS011;59898;52.786;6.892;2023-07-29T07:41:04;9.48;;;7.43;;
52668;SDS011;59898;52.786;6.892;2023-07-29T07:44:24;14.35;;;6.40;;
52668;SDS011;59898;52.786;6.892;2023-07-29T07:47:46;11.85;;;7.88;;
52668;SDS011;59898;52.786;6.892;2023-07-29T07:51:10;10.43;;;7.03;;
52668;SDS011;59898;52.786;6.892;2023-07-29T07:54:32;8.13;;;5.75;;
52668;SDS011;59898;52.786;6.892;2023-07-29T07:57:52;9.77;;;7.13;;
52668;SDS011;59898;52.786;6.892;2023-07-29T08:01:13;10.40;;;5.93;;
52668;SDS011;59898;52.786;6.892;2023-07-29T08:04:33;8.00;;;5.57;;
52668;SDS011;59898;52.786;6.892;2023-07-29T08:07:54;8.02;;;5.43;;
52668;SDS011;59898;52.786;6.892;2023-07-29T08:11:14;10.45;;;5.95;;
52668;SDS011;59898;52.786;6.892;2023-07-29T08:14:35;6.38;;;4.97;;
52668;SDS011;59898;52.786;6.892;2023-07-29T08:17:56;5.00;;;3.90;;
52668;SDS011;59898;52.786;6.892;2023-07-29T08:21:16;6.55;;;4.90;;
52668;SDS011;59898;52.786;6.892;2023-07-29T08:24:37;5.53;;;3.85;;
52668;SDS011;59898;52.786;6.892;2023-07-29T08:27:57;7.70;;;4.70;;
52668;SDS011;59898;52.786;6.892;2023-07-29T08:31:18;8.75;;;4.68;;
52668;SDS011;59898;52.786;6.892;2023-07-29T08:34:38;14.13;;;8.30;;
52668;SDS011;59898;52.786;6.892;2023-07-29T08:37:59;5.20;;;3.47;;
52668;SDS011;59898;52.786;6.892;2023-07-29T08:41:21;5.57;;;4.45;;
52668;SDS011;59898;52.786;6.892;2023-07-29T08:44:47;5.22;;;3.65;;
52668;SDS011;59898;52.786;6.892;2023-07-29T08:48:09;7.90;;;3.50;;
52668;SDS011;59898;52.786;6.892;2023-07-29T08:51:31;5.00;;;3.15;;
52668;SDS011;59898;52.786;6.892;2023-07-29T08:54:52;8.18;;;3.40;;
52668;SDS011;59898;52.786;6.892;2023-07-29T08:58:13;8.43;;;3.50;;
52668;SDS011;59898;52.786;6.892;2023-07-29T09:01:34;7.18;;;4.07;;
52668;SDS011;59898;52.786;6.892;2023-07-29T09:04:54;6.40;;;3.58;;
52668;SDS011;59898;52.786;6.892;2023-07-29T09:08:15;4.65;;;3.28;;
52668;SDS011;59898;52.786;6.892;2023-07-29T09:11:36;6.13;;;3.72;;
52668;SDS011;59898;52.786;6.892;2023-07-29T09:14:56;5.97;;;4.45;;
52668;SDS011;59898;52.786;6.892;2023-07-29T09:18:18;7.55;;;4.13;;
52668;SDS011;59898;52.786;6.892;2023-07-29T09:21:40;8.80;;;5.82;;
52668;SDS011;59898;52.786;6.892;2023-07-29T09:25:01;8.63;;;3.08;;
52668;SDS011;59898;52.786;6.892;2023-07-29T09:28:21;15.75;;;4.45;;
52668;SDS011;59898;52.786;6.892;2023-07-29T09:31:43;4.07;;;2.90;;
52668;SDS011;59898;52.786;6.892;2023-07-29T09:35:03;4.38;;;3.13;;
52668;SDS011;59898;52.786;6.892;2023-07-29T09:38:31;5.40;;;2.83;;
52668;SDS011;59898;52.786;6.892;2023-07-29T09:41:52;3.17;;;2.53;;
52668;SDS011;59898;52.786;6.892;2023-07-29T09:45:14;4.72;;;2.97;;
52668;SDS011;59898;52.786;6.892;2023-07-29T09:48:40;6.00;;;2.63;;
52668;SDS011;59898;52.786;6.892;2023-07-29T09:52:01;5.18;;;2.92;;
52668;SDS011;59898;52.786;6.892;2023-07-29T09:55:23;6.23;;;2.97;;
52668;SDS011;59898;52.786;6.892;2023-07-29T09:58:44;7.28;;;2.63;;
52668;SDS011;59898;52.786;6.892;2023-07-29T10:02:10;6.18;;;3.20;;
52668;SDS011;59898;52.786;6.892;2023-07-29T10:05:35;5.43;;;2.70;;
52668;SDS011;59898;52.786;6.892;2023-07-29T10:08:56;5.05;;;2.88;;
52668;SDS011;59898;52.786;6.892;2023-07-29T10:12:17;3.30;;;2.30;;
52668;SDS011;59898;52.786;6.892;2023-07-29T10:15:39;4.85;;;2.60;;
52668;SDS011;59898;52.786;6.892;2023-07-29T10:19:00;2.72;;;2.35;;
52668;SDS011;59898;52.786;6.892;2023-07-29T10:22:21;5.35;;;3.20;;
52668;SDS011;59898;52.786;6.892;2023-07-29T10:25:54;4.47;;;3.20;;
52668;SDS011;59898;52.786;6.892;2023-07-29T10:29:19;3.47;;;2.75;;
52668;SDS011;59898;52.786;6.892;2023-07-29T10:36:04;3.38;;;2.17;;
52668;SDS011;59898;52.786;6.892;2023-07-29T10:39:25;5.80;;;3.10;;
52668;SDS011;59898;52.786;6.892;2023-07-29T10:42:59;5.75;;;3.70;;
52668;SDS011;59898;52.786;6.892;2023-07-29T10:46:24;4.20;;;2.85;;
52668;SDS011;59898;52.786;6.892;2023-07-29T10:49:45;5.13;;;3.20;;
52668;SDS011;59898;52.786;6.892;2023-07-29T10:53:07;4.90;;;3.13;;
52668;SDS011;59898;52.786;6.892;2023-07-29T10:56:31;4.13;;;3.08;;
52668;SDS011;59898;52.786;6.892;2023-07-29T10:59:56;5.05;;;3.90;;
52668;SDS011;59898;52.786;6.892;2023-07-29T11:03:17;6.65;;;4.00;;
52668;SDS011;59898;52.786;6.892;2023-07-29T11:10:23;4.75;;;4.07;;
52668;SDS011;59898;52.786;6.892;2023-07-29T11:13:43;6.35;;;5.03;;
52668;SDS011;59898;52.786;6.892;2023-07-29T11:17:04;5.55;;;4.15;;
52668;SDS011;59898;52.786;6.892;2023-07-29T11:20:26;6.03;;;4.75;;
52668;SDS011;59898;52.786;6.892;2023-07-29T11:23:48;5.55;;;5.00;;
52668;SDS011;59898;52.786;6.892;2023-07-29T11:27:11;5.55;;;4.88;;
52668;SDS011;59898;52.786;6.892;2023-07-29T11:30:32;4.78;;;4.30;;
52668;SDS011;59898;52.786;6.892;2023-07-29T11:33:53;6.10;;;4.93;;
52668;SDS011;59898;52.786;6.892;2023-07-29T11:37:14;5.97;;;4.43;;
52668;SDS011;59898;52.786;6.892;2023-07-29T11:40:34;4.55;;;4.07;;
52668;SDS011;59898;52.786;6.892;2023-07-29T11:43:55;6.63;;;4.50;;
52668;SDS011;59898;52.786;6.892;2023-07-29T11:47:15;5.47;;;3.97;;
52668;SDS011;59898;52.786;6.892;2023-07-29T11:50:36;5.93;;;4.75;;
52668;SDS011;59898;52.786;6.892;2023-07-29T11:53:57;4.60;;;3.97;;
52668;SDS011;59898;52.786;6.892;2023-07-29T11:57:18;7.13;;;4.30;;
52668;SDS011;59898;52.786;6.892;2023-07-29T12:00:38;4.72;;;4.22;;
52668;SDS011;59898;52.786;6.892;2023-07-29T12:03:59;6.57;;;4.50;;
52668;SDS011;59898;52.786;6.892;2023-07-29T12:07:20;5.68;;;4.22;;
52668;SDS011;59898;52.786;6.892;2023-07-29T12:10:41;6.43;;;3.50;;
52668;SDS011;59898;52.786;6.892;2023-07-29T12:14:02;5.60;;;3.15;;
52668;SDS011;59898;52.786;6.892;2023-07-29T12:17:23;5.57;;;4.10;;
52668;SDS011;59898;52.786;6.892;2023-07-29T12:20:43;4.25;;;2.80;;
52668;SDS011;59898;52.786;6.892;2023-07-29T12:24:04;6.07;;;3.42;;
52668;SDS011;59898;52.786;6.892;2023-07-29T12:27:25;13.70;;;3.72;;
52668;SDS011;59898;52.786;6.892;2023-07-29T12:30:45;8.07;;;3.03;;
52668;SDS011;59898;52.786;6.892;2023-07-29T12:34:06;5.80;;;3.10;;
52668;SDS011;59898;52.786;6.892;2023-07-29T12:37:31;5.30;;;2.97;;
52668;SDS011;59898;52.786;6.892;2023-07-29T12:40:52;6.97;;;4.15;;
52668;SDS011;59898;52.786;6.892;2023-07-29T12:44:13;4.70;;;3.05;;
52668;SDS011;59898;52.786;6.892;2023-07-29T12:47:34;5.93;;;3.40;;
52668;SDS011;59898;52.786;6.892;2023-07-29T12:50:54;5.65;;;2.70;;
52668;SDS011;59898;52.786;6.892;2023-07-29T12:54:15;4.68;;;2.83;;
52668;SDS011;59898;52.786;6.892;2023-07-29T12:57:35;3.58;;;2.90;;
52668;SDS011;59898;52.786;6.892;2023-07-29T13:00:56;6.00;;;3.13;;
52668;SDS011;59898;52.786;6.892;2023-07-29T13:04:16;4.85;;;2.80;;
52668;SDS011;59898;52.786;6.892;2023-07-29T13:07:38;10.07;;;3.35;;
52668;SDS011;59898;52.786;6.892;2023-07-29T13:10:59;6.25;;;2.60;;
52668;SDS011;59898;52.786;6.892;2023-07-29T13:14:19;6.88;;;3.70;;
52668;SDS011;59898;52.786;6.892;2023-07-29T13:17:40;5.25;;;2.72;;
52668;SDS011;59898;52.786;6.892;2023-07-29T13:21:01;5.90;;;3.22;;
52668;SDS011;59898;52.786;6.892;2023-07-29T13:24:22;5.97;;;3.80;;
52668;SDS011;59898;52.786;6.892;2023-07-29T13:27:42;4.82;;;2.67;;
52668;SDS011;59898;52.786;6.892;2023-07-29T13:31:03;5.22;;;3.05;;
52668;SDS011;59898;52.786;6.892;2023-07-29T13:34:23;5.30;;;3.45;;
52668;SDS011;59898;52.786;6.892;2023-07-29T13:37:44;6.43;;;3.30;;
52668;SDS011;59898;52.786;6.892;2023-07-29T13:41:04;4.50;;;4.05;;
52668;SDS011;59898;52.786;6.892;2023-07-29T13:44:25;6.03;;;3.40;;
52668;SDS011;59898;52.786;6.892;2023-07-29T13:47:46;4.03;;;2.90;;
52668;SDS011;59898;52.786;6.892;2023-07-29T13:51:06;5.97;;;3.47;;
52668;SDS011;59898;52.786;6.892;2023-07-29T13:54:27;4.93;;;3.45;;
52668;SDS011;59898;52.786;6.892;2023-07-29T13:57:48;4.07;;;3.08;;
52668;SDS011;59898;52.786;6.892;2023-07-29T14:01:09;3.33;;;2.55;;
52668;SDS011;59898;52.786;6.892;2023-07-29T14:04:29;3.47;;;2.60;;
52668;SDS011;59898;52.786;6.892;2023-07-29T14:07:50;6.45;;;3.45;;
52668;SDS011;59898;52.786;6.892;2023-07-29T14:11:11;3.83;;;2.90;;
52668;SDS011;59898;52.786;6.892;2023-07-29T14:14:31;4.18;;;2.00;;
52668;SDS011;59898;52.786;6.892;2023-07-29T14:17:52;3.05;;;2.10;;
52668;SDS011;59898;52.786;6.892;2023-07-29T14:21:12;4.13;;;2.10;;
52668;SDS011;59898;52.786;6.892;2023-07-29T14:24:33;6.90;;;2.60;;
52668;SDS011;59898;52.786;6.892;2023-07-29T14:27:53;3.40;;;2.17;;
52668;SDS011;59898;52.786;6.892;2023-07-29T14:41:45;4.05;;;2.85;;
52668;SDS011;59898;52.786;6.892;2023-07-29T14:45:06;4.43;;;2.63;;
52668;SDS011;59898;52.786;6.892;2023-07-29T14:48:27;4.00;;;2.60;;
52668;SDS011;59898;52.786;6.892;2023-07-29T14:51:47;4.65;;;2.53;;
52668;SDS011;59898;52.786;6.892;2023-07-29T14:55:08;4.47;;;3.38;;
52668;SDS011;59898;52.786;6.892;2023-07-29T14:58:29;3.83;;;2.70;;
52668;SDS011;59898;52.786;6.892;2023-07-29T15:01:50;4.72;;;3.03;;
52668;SDS011;59898;52.786;6.892;2023-07-29T15:05:13;5.57;;;2.97;;
52668;SDS011;59898;52.786;6.892;2023-07-29T15:08:34;2.70;;;2.20;;
52668;SDS011;59898;52.786;6.892;2023-07-29T15:11:55;5.28;;;3.17;;
52668;SDS011;59898;52.786;6.892;2023-07-29T15:15:15;13.75;;;3.85;;
52668;SDS011;59898;52.786;6.892;2023-07-29T15:18:36;7.07;;;4.32;;
52668;SDS011;59898;52.786;6.892;2023-07-29T15:21:57;7.00;;;4.13;;
52668;SDS011;59898;52.786;6.892;2023-07-29T15:25:17;8.18;;;5.93;;
52668;SDS011;59898;52.786;6.892;2023-07-29T15:28:38;8.15;;;5.53;;
52668;SDS011;59898;52.786;6.892;2023-07-29T15:31:58;5.53;;;3.97;;
52668;SDS011;59898;52.786;6.892;2023-07-29T15:35:21;4.72;;;3.90;;
52668;SDS011;59898;52.786;6.892;2023-07-29T15:38:42;3.85;;;3.17;;
52668;SDS011;59898;52.786;6.892;2023-07-29T15:42:02;4.10;;;3.40;;
52668;SDS011;59898;52.786;6.892;2023-07-29T15:45:23;3.97;;;3.20;;
52668;SDS011;59898;52.786;6.892;2023-07-29T15:48:44;6.35;;;4.43;;
52668;SDS011;59898;52.786;6.892;2023-07-29T15:52:05;8.45;;;3.85;;
52668;SDS011;59898;52.786;6.892;2023-07-29T15:55:28;4.82;;;3.30;;
52668;SDS011;59898;52.786;6.892;2023-07-29T15:58:49;4.72;;;3.38;;
52668;SDS011;59898;52.786;6.892;2023-07-29T16:02:09;4.63;;;3.15;;
52668;SDS011;59898;52.786;6.892;2023-07-29T16:05:30;4.53;;;3.10;;
52668;SDS011;59898;52.786;6.892;2023-07-29T16:08:51;3.22;;;2.70;;
52668;SDS011;59898;52.786;6.892;2023-07-29T16:12:12;5.93;;;3.45;;
52668;SDS011;59898;52.786;6.892;2023-07-29T16:15:32;3.88;;;3.03;;
52668;SDS011;59898;52.786;6.892;2023-07-29T16:18:53;3.60;;;2.75;;
52668;SDS011;59898;52.786;6.892;2023-07-29T16:22:13;4.82;;;3.60;;
52668;SDS011;59898;52.786;6.892;2023-07-29T16:25:34;4.13;;;2.80;;
52668;SDS011;59898;52.786;6.892;2023-07-29T16:28:54;4.07;;;2.80;;
52668;SDS011;59898;52.786;6.892;2023-07-29T16:32:15;4.80;;;2.88;;
52668;SDS011;59898;52.786;6.892;2023-07-29T16:35:37;3.63;;;3.20;;
52668;SDS011;59898;52.786;6.892;2023-07-29T16:38:57;3.30;;;2.55;;
52668;SDS011;59898;52.786;6.892;2023-07-29T16:42:18;4.65;;;2.50;;
52668;SDS011;59898;52.786;6.892;2023-07-29T16:45:38;3.38;;;2.50;;
52668;SDS011;59898;52.786;6.892;2023-07-29T16:48:59;3.47;;;2.47;;
52668;SDS011;59898;52.786;6.892;2023-07-29T16:52:20;3.40;;;2.30;;
52668;SDS011;59898;52.786;6.892;2023-07-29T16:55:41;6.38;;;2.28;;
52668;SDS011;59898;52.786;6.892;2023-07-29T16:59:01;3.45;;;2.17;;
52668;SDS011;59898;52.786;6.892;2023-07-29T17:02:22;3.75;;;2.50;;
52668;SDS011;59898;52.786;6.892;2023-07-29T17:05:42;4.05;;;2.78;;
52668;SDS011;59898;52.786;6.892;2023-07-29T17:09:03;7.38;;;3.00;;
52668;SDS011;59898;52.786;6.892;2023-07-29T17:12:23;4.20;;;3.00;;
52668;SDS011;59898;52.786;6.892;2023-07-29T17:15:44;4.75;;;2.35;;
52668;SDS011;59898;52.786;6.892;2023-07-29T17:19:05;6.40;;;3.50;;
52668;SDS011;59898;52.786;6.892;2023-07-29T17:22:25;4.80;;;2.83;;
52668;SDS011;59898;52.786;6.892;2023-07-29T17:25:46;4.80;;;2.90;;
52668;SDS011;59898;52.786;6.892;2023-07-29T17:29:08;3.00;;;2.67;;
52668;SDS011;59898;52.786;6.892;2023-07-29T17:32:29;2.55;;;2.10;;
52668;SDS011;59898;52.786;6.892;2023-07-29T17:35:52;3.33;;;2.70;;
52668;SDS011;59898;52.786;6.892;2023-07-29T17:39:15;3.67;;;2.60;;
52668;SDS011;59898;52.786;6.892;2023-07-29T17:42:35;5.35;;;2.53;;
52668;SDS011;59898;52.786;6.892;2023-07-29T17:45:56;3.65;;;2.90;;
52668;SDS011;59898;52.786;6.892;2023-07-29T17:49:16;7.05;;;3.00;;
52668;SDS011;59898;52.786;6.892;2023-07-29T17:52:39;4.03;;;2.60;;
52668;SDS011;59898;52.786;6.892;2023-07-29T17:56:02;4.32;;;3.22;;
52668;SDS011;59898;52.786;6.892;2023-07-29T17:59:23;4.95;;;3.25;;
52668;SDS011;59898;52.786;6.892;2023-07-29T18:02:44;4.85;;;3.03;;
52668;SDS011;59898;52.786;6.892;2023-07-29T18:06:15;4.05;;;3.08;;
52668;SDS011;59898;52.786;6.892;2023-07-29T18:09:36;5.70;;;3.17;;
52668;SDS011;59898;52.786;6.892;2023-07-29T18:12:58;5.75;;;3.20;;
52668;SDS011;59898;52.786;6.892;2023-07-29T18:16:21;3.88;;;2.90;;
52668;SDS011;59898;52.786;6.892;2023-07-29T18:19:42;10.73;;;9.03;;
52668;SDS011;59898;52.786;6.892;2023-07-29T18:23:04;7.68;;;6.10;;
52668;SDS011;59898;52.786;6.892;2023-07-29T18:26:25;6.68;;;3.42;;
52668;SDS011;59898;52.786;6.892;2023-07-29T18:29:45;5.25;;;3.72;;
52668;SDS011;59898;52.786;6.892;2023-07-29T18:33:06;4.32;;;2.88;;
52668;SDS011;59898;52.786;6.892;2023-07-29T18:36:27;3.85;;;2.97;;
52668;SDS011;59898;52.786;6.892;2023-07-29T18:39:50;4.57;;;3.00;;
52668;SDS011;59898;52.786;6.892;2023-07-29T18:43:10;5.82;;;3.33;;
52668;SDS011;59898;52.786;6.892;2023-07-29T18:46:31;16.17;;;10.65;;
52668;SDS011;59898;52.786;6.892;2023-07-29T18:49:51;8.50;;;5.85;;
52668;SDS011;59898;52.786;6.892;2023-07-29T18:53:13;5.72;;;4.13;;
52668;SDS011;59898;52.786;6.892;2023-07-29T18:56:33;5.45;;;4.78;;
52668;SDS011;59898;52.786;6.892;2023-07-29T18:59:54;5.45;;;4.88;;
52668;SDS011;59898;52.786;6.892;2023-07-29T19:03:15;6.07;;;4.17;;
52668;SDS011;59898;52.786;6.892;2023-07-29T19:06:36;5.57;;;3.47;;
52668;SDS011;59898;52.786;6.892;2023-07-29T19:09:57;4.03;;;3.10;;
52668;SDS011;59898;52.786;6.892;2023-07-29T19:13:17;4.78;;;2.60;;
52668;SDS011;59898;52.786;6.892;2023-07-29T19:16:38;7.32;;;2.53;;
52668;SDS011;59898;52.786;6.892;2023-07-29T19:19:58;4.68;;;2.75;;
52668;SDS011;59898;52.786;6.892;2023-07-29T19:23:21;5.00;;;2.67;;
52668;SDS011;59898;52.786;6.892;2023-07-29T19:26:42;4.25;;;2.75;;
52668;SDS011;59898;52.786;6.892;2023-07-29T19:30:03;5.75;;;3.13;;
52668;SDS011;59898;52.786;6.892;2023-07-29T19:33:24;4.40;;;2.88;;
52668;SDS011;59898;52.786;6.892;2023-07-29T19:36:44;4.57;;;3.15;;
52668;SDS011;59898;52.786;6.892;2023-07-29T19:40:05;5.63;;;3.20;;
52668;SDS011;59898;52.786;6.892;2023-07-29T19:43:26;10.05;;;3.60;;
52668;SDS011;59898;52.786;6.892;2023-07-29T19:46:47;4.60;;;3.38;;
52668;SDS011;59898;52.786;6.892;2023-07-29T19:50:08;7.25;;;5.28;;
52668;SDS011;59898;52.786;6.892;2023-07-29T19:53:29;8.10;;;3.55;;
52668;SDS011;59898;52.786;6.892;2023-07-29T19:56:50;8.52;;;4.88;;
52668;SDS011;59898;52.786;6.892;2023-07-29T20:00:10;9.18;;;6.90;;
52668;SDS011;59898;52.786;6.892;2023-07-29T20:03:31;5.57;;;3.80;;
52668;SDS011;59898;52.786;6.892;2023-07-29T20:06:52;8.55;;;3.67;;
52668;SDS011;59898;52.786;6.892;2023-07-29T20:10:15;6.65;;;3.90;;
52668;SDS011;59898;52.786;6.892;2023-07-29T20:13:35;6.00;;;3.50;;
52668;SDS011;59898;52.786;6.892;2023-07-29T20:16:56;5.57;;;3.60;;
52668;SDS011;59898;52.786;6.892;2023-07-29T20:20:16;6.60;;;3.50;;
52668;SDS011;59898;52.786;6.892;2023-07-29T20:23:37;5.88;;;3.72;;
52668;SDS011;59898;52.786;6.892;2023-07-29T20:26:57;3.28;;;2.78;;